Solothurn, Switzerland
Current Conditions -  °F | °C
As of 3:50 PM on Wednesday 22 Oct 2014 (Local Time) from LSZG Reporting Station
Broken Clouds Broken Clouds  
Wind Chill: 40°   Ceiling: 4700
Heat Index: 45°   Visibility: 6mi
Dew Point: 36°   Wind: 8mph
Humidity: 71%   Direction: 260°W
Pressure: 30.24"   Gusts: NA
Location:  47.22°N, 7.54°E
Report Text: LSZG 221350Z 26007KT 220V290 9999 FEW025 BKN047 BKN070 07/02 Q1024 NOSIG
Loading
Personal Weather Stations






























Interactive Weather Map
Tropical Storm Tracking
New forecast layout! Learn more

10-Day Weather Forecast

Advertisements
Track Severe Weather on mobile